createdAt,value
2022-12-04T00:00:27.396Z,-0.39
2022-12-04T00:02:54.450Z,-0.28
2022-12-04T00:05:21.453Z,-0.30
2022-12-04T00:07:48.510Z,-0.40
2022-12-04T00:10:15.679Z,-0.34
2022-12-04T00:12:42.646Z,-0.30
2022-12-04T00:15:25.046Z,-0.27
2022-12-04T00:17:54.955Z,-0.25
2022-12-04T00:20:23.527Z,-0.28
2022-12-04T00:22:50.262Z,-0.31
2022-12-04T00:25:18.402Z,-0.23
2022-12-04T00:27:45.271Z,-0.35
2022-12-04T00:30:12.863Z,-0.41
2022-12-04T00:32:42.767Z,-0.28
2022-12-04T00:35:10.628Z,-0.21
2022-12-04T00:37:37.742Z,-0.16
2022-12-04T00:40:05.514Z,-0.15
2022-12-04T00:42:32.463Z,-0.31
2022-12-04T00:44:59.493Z,-0.17
2022-12-04T00:47:26.373Z,-0.19
2022-12-04T00:49:53.795Z,-0.15
2022-12-04T00:52:21.256Z,-0.10
2022-12-04T00:54:47.840Z,-0.08
2022-12-04T00:57:15.493Z,-0.11
2022-12-04T00:59:42.576Z,-0.10
2022-12-04T01:02:09.577Z,-0.05
2022-12-04T01:04:36.305Z,-0.03
2022-12-04T01:07:05.333Z,-0.05
2022-12-04T01:09:32.938Z,-0.21
2022-12-04T01:12:00.454Z,-0.05
2022-12-04T01:14:27.398Z,-0.08
2022-12-04T01:16:54.974Z,-0.07
2022-12-04T01:19:23.067Z,-0.10
2022-12-04T01:21:51.168Z,-0.09
2022-12-04T01:24:18.117Z,-0.01
2022-12-04T01:26:45.023Z,-0.05
2022-12-04T01:29:12.461Z,0.03
2022-12-04T01:31:39.532Z,-0.14
2022-12-04T01:34:06.718Z,-0.07
2022-12-04T01:36:34.184Z,0.01
2022-12-04T01:39:01.366Z,-0.00
2022-12-04T01:41:30.966Z,-0.02
2022-12-04T01:44:16.015Z,-0.02
2022-12-04T01:46:46.544Z,-0.09
2022-12-04T01:49:23.671Z,-0.12
2022-12-04T01:51:55.094Z,-0.05
2022-12-04T01:54:30.127Z,0.02
2022-12-04T01:57:06.891Z,-0.02
2022-12-04T01:59:51.710Z,-0.06
2022-12-04T02:02:22.376Z,0.05
2022-12-04T02:04:51.052Z,-0.02
2022-12-04T02:07:18.220Z,-0.05
2022-12-04T02:09:45.615Z,-0.07
2022-12-04T02:12:50.139Z,-0.07
2022-12-04T02:15:42.112Z,-0.05
2022-12-04T02:18:18.762Z,0.02
2022-12-04T02:21:05.710Z,-0.07
2022-12-04T02:24:00.469Z,0.08
2022-12-04T02:26:48.526Z,0.13
2022-12-04T02:29:56.031Z,0.15
2022-12-04T02:32:36.105Z,0.16
2022-12-04T02:35:20.287Z,0.06
2022-12-04T02:37:52.071Z,0.08
2022-12-04T02:40:31.327Z,0.09
2022-12-04T02:43:03.490Z,0.12
2022-12-04T02:45:33.668Z,0.17
2022-12-04T02:48:04.692Z,0.14
2022-12-04T02:50:36.607Z,0.13
2022-12-04T02:53:10.284Z,0.17
2022-12-04T02:55:44.992Z,0.15
2022-12-04T02:58:19.247Z,0.21
2022-12-04T03:00:48.646Z,0.22
2022-12-04T03:03:21.696Z,0.16
2022-12-04T03:06:07.740Z,0.21
2022-12-04T03:08:46.536Z,0.18
2022-12-04T03:11:13.661Z,0.22
2022-12-04T03:13:59.897Z,0.24
2022-12-04T03:16:33.006Z,0.29
2022-12-04T03:19:07.041Z,0.20
2022-12-04T03:21:41.739Z,0.24
2022-12-04T03:24:26.914Z,0.15
2022-12-04T03:27:29.599Z,0.20
2022-12-04T03:30:10.091Z,0.13
2022-12-04T03:32:40.192Z,0.13
2022-12-04T03:35:20.189Z,0.22
2022-12-04T03:38:02.020Z,0.24
2022-12-04T03:40:54.670Z,0.23
2022-12-04T03:43:31.672Z,0.22
2022-12-04T03:46:26.298Z,0.21
2022-12-04T03:49:14.009Z,0.27
2022-12-04T03:52:09.818Z,0.12
2022-12-04T03:55:19.299Z,0.23
2022-12-04T03:57:51.035Z,0.16
2022-12-04T04:00:21.322Z,0.19
2022-12-04T04:03:13.118Z,0.19
2022-12-04T04:05:45.988Z,0.22
2022-12-04T04:08:30.006Z,0.22
2022-12-04T04:11:07.796Z,0.25
2022-12-04T04:13:59.586Z,0.31
2022-12-04T04:16:47.817Z,0.33
2022-12-04T04:19:36.575Z,0.27
2022-12-04T04:22:27.165Z,0.29
2022-12-04T04:25:08.138Z,0.34
2022-12-04T04:27:35.114Z,0.24
2022-12-04T04:30:02.490Z,0.30
2022-12-04T04:32:36.104Z,0.38
2022-12-04T04:35:18.211Z,0.43
2022-12-04T04:38:06.703Z,0.32
2022-12-04T04:40:40.905Z,0.34
2022-12-04T04:43:25.054Z,0.25
2022-12-04T04:46:14.285Z,0.31
2022-12-04T04:48:45.537Z,0.27
2022-12-04T04:51:13.108Z,0.23
2022-12-04T04:53:46.226Z,0.22
2022-12-04T04:56:14.200Z,0.22
2022-12-04T04:58:42.784Z,0.29
2022-12-04T05:01:28.125Z,0.33
2022-12-04T05:03:55.142Z,0.28
2022-12-04T05:06:22.300Z,0.29
2022-12-04T05:08:49.394Z,0.25
2022-12-04T05:11:17.206Z,0.16
2022-12-04T05:13:44.265Z,0.20
2022-12-04T05:16:14.086Z,0.10
2022-12-04T05:19:05.824Z,0.10
2022-12-04T05:21:33.862Z,0.09
2022-12-04T05:24:01.380Z,0.04
2022-12-04T05:26:28.529Z,-0.00
2022-12-04T05:28:55.581Z,0.04
2022-12-04T05:31:22.706Z,0.03
2022-12-04T05:33:49.690Z,-0.03
2022-12-04T05:36:16.671Z,-0.01
2022-12-04T05:38:43.734Z,-0.03
2022-12-04T05:41:10.815Z,-0.00
2022-12-04T05:43:38.040Z,-0.05
2022-12-04T05:46:07.692Z,0.01
2022-12-04T05:48:35.648Z,-0.11
2022-12-04T05:51:07.306Z,0.04
2022-12-04T05:53:34.756Z,0.02
2022-12-04T05:56:04.663Z,0.10
2022-12-04T05:58:31.607Z,0.09
2022-12-04T06:00:58.649Z,0.12
2022-12-04T06:03:25.786Z,0.15
2022-12-04T06:05:52.862Z,0.19
2022-12-04T06:08:20.132Z,0.24
2022-12-04T06:10:46.930Z,0.21
2022-12-04T06:13:14.041Z,0.24
2022-12-04T06:15:41.342Z,0.24
2022-12-04T06:18:08.635Z,0.33
2022-12-04T06:20:35.629Z,0.33
2022-12-04T06:23:02.987Z,0.32
2022-12-04T06:25:30.207Z,0.40
2022-12-04T06:27:57.200Z,0.37
2022-12-04T06:30:24.360Z,0.42
2022-12-04T06:32:51.350Z,0.44
2022-12-04T06:35:18.508Z,0.49
2022-12-04T06:37:45.554Z,0.52
2022-12-04T06:40:12.966Z,0.49
2022-12-04T06:42:39.884Z,0.48
2022-12-04T06:45:07.470Z,0.55
2022-12-04T06:47:36.239Z,0.48
2022-12-04T06:50:04.645Z,0.57
2022-12-04T06:52:33.962Z,0.68
2022-12-04T06:55:02.016Z,0.71
2022-12-04T06:57:29.192Z,0.71
2022-12-04T06:59:56.753Z,0.68
2022-12-04T07:02:24.260Z,0.66
2022-12-04T07:04:56.100Z,0.65
2022-12-04T07:07:23.530Z,0.71
2022-12-04T07:09:50.670Z,0.76
2022-12-04T07:12:17.810Z,0.62
2022-12-04T07:14:44.989Z,0.75
2022-12-04T07:17:12.026Z,0.81
2022-12-04T07:19:39.338Z,0.84
2022-12-04T07:22:08.878Z,0.89
2022-12-04T07:24:37.571Z,0.91
2022-12-04T07:27:04.811Z,0.93
2022-12-04T07:29:32.078Z,0.97
2022-12-04T07:31:59.208Z,0.90
2022-12-04T07:34:25.978Z,0.98
2022-12-04T07:36:53.043Z,0.98
2022-12-04T07:39:20.360Z,1.02
2022-12-04T07:41:47.453Z,1.04
2022-12-04T07:44:14.462Z,1.07
2022-12-04T07:46:41.614Z,1.09
2022-12-04T07:49:11.388Z,1.13
2022-12-04T07:51:38.556Z,1.17
2022-12-04T07:54:05.433Z,1.17
2022-12-04T07:56:33.562Z,1.18
2022-12-04T07:59:01.477Z,1.25
2022-12-04T08:01:28.976Z,1.29
2022-12-04T08:03:57.482Z,1.37
2022-12-04T08:06:26.752Z,1.42
2022-12-04T08:08:54.072Z,1.38
2022-12-04T08:11:23.074Z,1.46
2022-12-04T08:13:55.672Z,1.49
2022-12-04T08:16:23.057Z,1.49
2022-12-04T08:18:50.252Z,1.49
2022-12-04T08:21:23.234Z,1.53
2022-12-04T08:23:52.752Z,1.58
2022-12-04T08:26:22.089Z,1.62
2022-12-04T08:28:49.477Z,1.68
2022-12-04T08:31:19.619Z,1.65
2022-12-04T08:33:48.948Z,1.68
2022-12-04T08:36:20.574Z,1.70
2022-12-04T08:38:48.775Z,1.76
2022-12-04T08:41:18.957Z,1.80
2022-12-04T08:43:46.089Z,1.85
2022-12-04T08:46:15.985Z,1.91
2022-12-04T08:48:43.826Z,1.88
2022-12-04T08:51:20.007Z,1.93
2022-12-04T08:53:47.524Z,1.92
2022-12-04T08:56:14.820Z,1.98
2022-12-04T08:58:41.708Z,2.01
2022-12-04T09:01:12.313Z,2.08
2022-12-04T09:03:39.996Z,2.07
2022-12-04T09:06:08.459Z,2.11
2022-12-04T09:08:36.591Z,2.15
2022-12-04T09:11:15.489Z,2.19
2022-12-04T09:13:43.411Z,2.21
2022-12-04T09:16:14.903Z,2.24
2022-12-04T09:18:42.782Z,2.15
2022-12-04T09:21:12.386Z,2.16
2022-12-04T09:23:39.904Z,2.24
2022-12-04T09:26:24.012Z,2.29
2022-12-04T09:28:51.908Z,2.39
2022-12-04T09:31:20.257Z,2.32
2022-12-04T09:33:47.826Z,2.36
2022-12-04T09:36:18.482Z,2.37
2022-12-04T09:38:51.558Z,2.49
2022-12-04T09:41:22.140Z,2.53
2022-12-04T09:44:12.668Z,2.51
2022-12-04T09:46:50.831Z,2.55
2022-12-04T09:49:26.494Z,2.56
2022-12-04T09:51:56.838Z,2.64
2022-12-04T09:54:30.783Z,2.64
2022-12-04T09:57:09.914Z,2.71
2022-12-04T09:59:38.260Z,2.76
2022-12-04T10:02:36.515Z,2.82
2022-12-04T10:05:03.844Z,2.87
2022-12-04T10:08:03.816Z,2.89
2022-12-04T10:10:41.322Z,2.91
2022-12-04T10:13:25.606Z,2.94
2022-12-04T10:16:16.107Z,3.00
2022-12-04T10:18:53.539Z,3.02
2022-12-04T10:21:41.997Z,3.02
2022-12-04T10:24:33.727Z,3.10
2022-12-04T10:27:06.203Z,3.10
2022-12-04T10:29:37.623Z,3.10
2022-12-04T10:32:20.315Z,3.14
2022-12-04T10:34:50.697Z,3.16
2022-12-04T10:37:17.741Z,3.21
2022-12-04T10:39:55.421Z,3.30
2022-12-04T10:42:31.221Z,3.31
2022-12-04T10:44:57.995Z,3.40
2022-12-04T10:47:25.819Z,3.40
2022-12-04T10:50:02.512Z,3.44
2022-12-04T10:52:29.483Z,3.48
2022-12-04T10:54:59.837Z,3.47
2022-12-04T10:57:45.869Z,3.52
2022-12-04T11:00:34.913Z,3.59
2022-12-04T11:03:11.707Z,3.59
2022-12-04T11:05:55.694Z,4.07
2022-12-04T11:08:28.135Z,3.95
2022-12-04T11:10:57.104Z,3.87
2022-12-04T11:13:24.691Z,3.83
2022-12-04T11:15:55.399Z,3.86
2022-12-04T11:18:28.435Z,3.75
2022-12-04T11:21:12.988Z,3.86
2022-12-04T11:23:46.113Z,3.83
2022-12-04T11:26:14.442Z,3.86
2022-12-04T11:28:53.435Z,3.94
2022-12-04T11:31:23.155Z,4.00
2022-12-04T11:33:54.224Z,3.95
2022-12-04T11:36:23.558Z,3.97
2022-12-04T11:39:03.175Z,4.02
2022-12-04T11:41:31.943Z,4.00
2022-12-04T11:44:00.773Z,4.02
2022-12-04T11:46:31.388Z,4.07
2022-12-04T11:48:59.200Z,4.10
2022-12-04T11:51:55.828Z,4.08
2022-12-04T11:54:31.565Z,4.10
2022-12-04T11:56:58.807Z,4.02
2022-12-04T11:59:57.107Z,4.12
2022-12-04T12:02:49.002Z,4.19
2022-12-04T12:05:50.042Z,4.21
2022-12-04T12:08:42.122Z,4.24
2022-12-04T12:11:38.773Z,4.18
2022-12-04T12:14:18.830Z,4.17
2022-12-04T12:16:58.211Z,4.22
2022-12-04T12:19:31.390Z,4.31
2022-12-04T12:22:15.735Z,4.26
2022-12-04T12:25:05.815Z,4.28
2022-12-04T12:27:42.926Z,4.29
2022-12-04T12:30:19.235Z,4.35
2022-12-04T12:33:09.917Z,4.37
2022-12-04T12:35:51.127Z,4.43
2022-12-04T12:38:24.190Z,4.37
2022-12-04T12:40:57.246Z,4.38
2022-12-04T12:43:32.577Z,4.37
2022-12-04T12:46:21.033Z,4.42
2022-12-04T12:49:04.171Z,4.45
2022-12-04T12:51:41.401Z,4.51
2022-12-04T12:54:39.429Z,4.52
2022-12-04T12:57:18.410Z,4.38
2022-12-04T12:59:56.451Z,4.50
2022-12-04T13:02:32.957Z,4.51
2022-12-04T13:05:08.868Z,4.51
2022-12-04T13:08:22.878Z,4.49
2022-12-04T13:11:01.464Z,4.49
2022-12-04T13:13:32.891Z,4.47
2022-12-04T13:16:12.069Z,4.56
2022-12-04T13:18:41.086Z,4.48
2022-12-04T13:21:12.822Z,4.50
2022-12-04T13:23:55.638Z,4.54
2022-12-04T13:26:53.311Z,4.47
2022-12-04T13:29:39.328Z,4.47
2022-12-04T13:32:33.228Z,4.51
2022-12-04T13:35:19.215Z,4.49
2022-12-04T13:37:58.630Z,4.48
2022-12-04T13:40:32.154Z,4.53
2022-12-04T13:43:21.603Z,4.38
2022-12-04T13:45:50.783Z,4.34
2022-12-04T13:48:33.436Z,4.24
2022-12-04T13:51:07.945Z,4.33
2022-12-04T13:53:37.882Z,4.24
2022-12-04T13:56:09.517Z,4.19
2022-12-04T13:58:38.195Z,4.19
2022-12-04T14:01:25.147Z,4.13
2022-12-04T14:03:59.413Z,4.16
2022-12-04T14:06:30.582Z,4.13
2022-12-04T14:09:01.303Z,4.23
2022-12-04T14:11:30.808Z,4.13
2022-12-04T14:14:03.438Z,4.15
2022-12-04T14:16:40.720Z,4.10
2022-12-04T14:19:24.419Z,4.03
2022-12-04T14:21:51.214Z,4.13
2022-12-04T14:24:39.242Z,4.09
2022-12-04T14:27:36.511Z,4.04
2022-12-04T14:30:04.553Z,4.04
2022-12-04T14:32:35.136Z,4.09
2022-12-04T14:35:03.660Z,4.03
2022-12-04T14:37:36.524Z,3.98
2022-12-04T14:40:07.355Z,3.94
2022-12-04T14:42:39.306Z,3.95
2022-12-04T14:45:17.338Z,3.85
2022-12-04T14:47:58.945Z,3.95
2022-12-04T14:50:55.029Z,4.00
2022-12-04T14:53:50.014Z,3.90
2022-12-04T14:56:41.005Z,4.00
2022-12-04T14:59:16.254Z,3.86
2022-12-04T15:01:46.709Z,3.89
2022-12-04T15:04:21.396Z,3.88
2022-12-04T15:06:55.430Z,3.92
2022-12-04T15:09:45.201Z,3.89
2022-12-04T15:12:36.422Z,3.83
2022-12-04T15:15:25.578Z,3.83
2022-12-04T15:18:14.960Z,3.88
2022-12-04T15:20:48.507Z,3.84
2022-12-04T15:23:18.054Z,3.85
2022-12-04T15:25:52.477Z,3.79
2022-12-04T15:28:30.471Z,3.74
2022-12-04T15:31:00.837Z,3.73
2022-12-04T15:33:30.485Z,3.79
2022-12-04T15:36:01.933Z,3.79
2022-12-04T15:38:29.132Z,3.80
2022-12-04T15:40:58.452Z,3.82
2022-12-04T15:43:31.943Z,3.88
2022-12-04T15:45:59.701Z,3.82
2022-12-04T15:48:31.028Z,3.84
2022-12-04T15:51:04.398Z,3.74
2022-12-04T15:53:38.576Z,3.73
2022-12-04T15:56:15.973Z,3.78
2022-12-04T15:58:54.616Z,3.75
2022-12-04T16:01:21.877Z,3.72
2022-12-04T16:03:54.173Z,3.68
2022-12-04T16:06:28.601Z,3.67
2022-12-04T16:09:00.721Z,3.71
2022-12-04T16:11:37.167Z,3.74
2022-12-04T16:14:13.045Z,3.84
2022-12-04T16:16:43.617Z,3.76
2022-12-04T16:19:34.593Z,3.73
2022-12-04T16:22:03.843Z,3.75
2022-12-04T16:24:30.934Z,3.77
2022-12-04T16:27:00.162Z,3.82
2022-12-04T16:29:27.233Z,3.78
2022-12-04T16:31:59.629Z,3.76
2022-12-04T16:34:30.152Z,3.80
2022-12-04T16:36:57.610Z,3.82
2022-12-04T16:39:25.102Z,3.80
2022-12-04T16:41:51.994Z,3.86
2022-12-04T16:44:21.998Z,3.75
2022-12-04T16:46:51.058Z,3.82
2022-12-04T16:49:18.819Z,3.84
2022-12-04T16:51:49.918Z,3.86
2022-12-04T16:54:17.556Z,3.87
2022-12-04T16:56:44.847Z,3.85
2022-12-04T16:59:12.413Z,3.86
2022-12-04T17:01:44.232Z,3.80
2022-12-04T17:04:11.708Z,3.85
2022-12-04T17:06:38.731Z,3.85
2022-12-04T17:09:06.497Z,3.83
2022-12-04T17:11:34.510Z,3.79
2022-12-04T17:14:07.122Z,3.86
2022-12-04T17:16:37.224Z,3.86
2022-12-04T17:19:04.917Z,3.84
2022-12-04T17:21:31.931Z,3.86
2022-12-04T17:23:58.918Z,3.83
2022-12-04T17:26:27.609Z,3.87
2022-12-04T17:28:54.567Z,3.90
2022-12-04T17:31:24.156Z,3.79
2022-12-04T17:33:51.622Z,3.86
2022-12-04T17:36:21.607Z,3.92
2022-12-04T17:38:48.539Z,3.94
2022-12-04T17:41:15.843Z,3.93
2022-12-04T17:43:43.762Z,3.90
2022-12-04T17:46:21.687Z,3.89
2022-12-04T17:48:49.097Z,3.98
2022-12-04T17:51:18.895Z,4.05
2022-12-04T17:53:45.955Z,3.99
2022-12-04T17:56:17.406Z,3.97
2022-12-04T17:58:44.946Z,3.97
2022-12-04T18:01:14.772Z,3.89
2022-12-04T18:03:43.332Z,3.93
2022-12-04T18:06:33.399Z,3.95
2022-12-04T18:09:00.429Z,3.93
2022-12-04T18:11:29.425Z,3.92
2022-12-04T18:13:59.040Z,3.92
2022-12-04T18:16:26.788Z,3.95
2022-12-04T18:18:54.586Z,3.93
2022-12-04T18:21:21.474Z,3.93
2022-12-04T18:23:48.582Z,3.95
2022-12-04T18:26:21.085Z,3.95
2022-12-04T18:28:49.005Z,3.98
2022-12-04T18:31:18.185Z,3.98
2022-12-04T18:33:45.407Z,4.00
2022-12-04T18:36:14.994Z,3.98
2022-12-04T18:38:41.950Z,3.97
2022-12-04T18:41:11.342Z,3.98
2022-12-04T18:43:40.632Z,3.94
2022-12-04T18:46:10.887Z,3.98
2022-12-04T18:48:39.092Z,4.00
2022-12-04T18:51:21.091Z,4.00
2022-12-04T18:53:48.723Z,3.99
2022-12-04T18:56:15.873Z,4.03
2022-12-04T18:58:43.387Z,4.05
2022-12-04T19:01:19.316Z,4.13
2022-12-04T19:03:47.702Z,4.10
2022-12-04T19:06:15.620Z,4.05
2022-12-04T19:08:44.983Z,4.02
2022-12-04T19:11:15.072Z,4.10
2022-12-04T19:13:42.127Z,4.13
2022-12-04T19:16:13.314Z,4.10
2022-12-04T19:18:40.376Z,4.09
2022-12-04T19:21:08.207Z,4.09
2022-12-04T19:23:35.969Z,4.16
2022-12-04T19:26:03.390Z,4.15
2022-12-04T19:28:30.537Z,4.12
2022-12-04T19:30:58.011Z,4.16
2022-12-04T19:33:25.178Z,4.17
2022-12-04T19:35:58.214Z,4.22
2022-12-04T19:38:25.262Z,4.22
2022-12-04T19:41:02.882Z,4.24
2022-12-04T19:43:30.122Z,4.26
2022-12-04T19:45:57.062Z,4.19
2022-12-04T19:48:23.917Z,4.21
2022-12-04T19:50:50.663Z,4.13
2022-12-04T19:53:17.402Z,4.13
2022-12-04T19:55:44.361Z,4.23
2022-12-04T19:58:12.565Z,4.26
2022-12-04T20:00:39.599Z,4.21
2022-12-04T20:03:06.511Z,4.23
2022-12-04T20:05:36.851Z,4.14
2022-12-04T20:10:29.912Z,4.27
2022-12-04T20:12:57.025Z,4.15
2022-12-04T20:15:23.811Z,4.18
2022-12-04T20:17:52.405Z,4.26
2022-12-04T20:20:19.762Z,4.22
2022-12-04T20:22:46.550Z,4.20
2022-12-04T20:25:13.299Z,4.26
2022-12-04T20:27:39.948Z,4.35
2022-12-04T20:30:07.443Z,4.28
2022-12-04T20:32:34.520Z,4.20
2022-12-04T20:35:01.462Z,4.23
2022-12-04T20:37:28.338Z,4.30
2022-12-04T20:39:55.460Z,4.20
2022-12-04T20:42:22.563Z,4.15
2022-12-04T20:44:49.228Z,4.20
2022-12-04T20:47:16.715Z,4.21
2022-12-04T20:49:43.609Z,4.27
2022-12-04T20:52:11.373Z,4.23
2022-12-04T20:54:41.565Z,4.22
2022-12-04T20:57:09.160Z,4.18
2022-12-04T20:59:36.379Z,4.32
2022-12-04T21:02:03.222Z,4.27
2022-12-04T21:04:30.205Z,4.29
2022-12-04T21:06:57.849Z,4.20
2022-12-04T21:09:25.168Z,4.28
2022-12-04T21:11:54.708Z,4.22
2022-12-04T21:14:42.611Z,4.24
2022-12-04T21:17:13.108Z,4.26
2022-12-04T21:19:40.115Z,4.32
2022-12-04T21:22:07.189Z,4.31
2022-12-04T21:24:36.348Z,4.27
2022-12-04T21:27:03.217Z,4.28
2022-12-04T21:29:29.966Z,4.31
2022-12-04T21:31:56.638Z,4.29
2022-12-04T21:34:26.694Z,4.24
2022-12-04T21:36:53.432Z,4.22
2022-12-04T21:39:23.827Z,4.17
2022-12-04T21:42:09.604Z,4.16
2022-12-04T21:44:36.240Z,4.26
2022-12-04T21:47:03.231Z,4.28
2022-12-04T21:49:29.806Z,4.29
2022-12-04T21:51:58.167Z,4.27
2022-12-04T21:54:28.567Z,4.26
2022-12-04T21:56:56.029Z,4.14
2022-12-04T21:59:23.082Z,4.20
2022-12-04T22:01:50.064Z,4.22
2022-12-04T22:04:17.240Z,4.19
2022-12-04T22:06:44.281Z,4.28
2022-12-04T22:09:12.184Z,4.30
2022-12-04T22:11:41.645Z,4.24
2022-12-04T22:14:09.221Z,4.28
2022-12-04T22:16:41.646Z,4.28
2022-12-04T22:19:09.964Z,4.21
2022-12-04T22:21:36.703Z,4.17
2022-12-04T22:24:04.554Z,4.26
2022-12-04T22:26:32.103Z,4.29
2022-12-04T22:28:58.832Z,4.23
2022-12-04T22:31:28.081Z,4.31
2022-12-04T22:33:56.738Z,4.41
2022-12-04T22:36:25.686Z,4.30
2022-12-04T22:39:08.831Z,4.36
2022-12-04T22:41:36.605Z,4.36
2022-12-04T22:44:06.632Z,4.33
2022-12-04T22:46:34.298Z,4.36
2022-12-04T22:49:01.245Z,4.42
2022-12-04T22:51:28.576Z,4.43
2022-12-04T22:53:57.219Z,4.33
2022-12-04T22:56:26.908Z,4.38
2022-12-04T22:58:54.521Z,4.33
2022-12-04T23:01:27.849Z,4.36
2022-12-04T23:03:55.501Z,4.31
2022-12-04T23:06:24.102Z,4.32
2022-12-04T23:08:56.287Z,4.26
2022-12-04T23:11:24.180Z,4.34
2022-12-04T23:13:52.779Z,4.32
2022-12-04T23:16:21.895Z,4.33
2022-12-04T23:18:49.433Z,4.21
2022-12-04T23:21:17.138Z,4.23
2022-12-04T23:23:45.319Z,4.37
2022-12-04T23:26:15.295Z,4.31
2022-12-04T23:28:42.809Z,4.32
2022-12-04T23:31:11.024Z,4.20
2022-12-04T23:33:38.787Z,4.26
2022-12-04T23:36:07.166Z,4.23
2022-12-04T23:38:35.831Z,4.24
2022-12-04T23:41:11.969Z,4.21
2022-12-04T23:43:39.413Z,4.17
2022-12-04T23:46:11.242Z,4.19
2022-12-04T23:48:43.355Z,4.19
2022-12-04T23:51:11.533Z,4.19
2022-12-04T23:53:38.162Z,4.17
2022-12-04T23:56:11.731Z,4.18
2022-12-04T23:58:39.663Z,4.15
